createdAt,value
2022-11-16T00:01:33.148Z,96820.66
2022-11-16T00:04:02.022Z,96833.81
2022-11-16T00:06:29.162Z,96806.78
2022-11-16T00:09:21.019Z,96838.50
2022-11-16T00:11:58.286Z,96806.03
2022-11-16T00:14:27.608Z,96833.44
2022-11-16T00:16:54.602Z,96818.28
2022-11-16T00:19:25.261Z,96840.78
2022-11-16T00:21:55.427Z,96817.50
2022-11-16T00:24:23.503Z,96842.19
2022-11-16T00:26:53.267Z,96814.53
2022-11-16T00:29:22.986Z,96835.44
2022-11-16T00:31:54.305Z,96831.34
2022-11-16T00:34:24.124Z,96828.94
2022-11-16T00:36:54.495Z,96843.59
2022-11-16T00:39:24.312Z,96851.97
2022-11-16T00:41:54.770Z,96826.84
2022-11-16T00:44:22.554Z,96855.78
2022-11-16T00:46:49.177Z,96843.78
2022-11-16T00:49:16.167Z,96839.09
2022-11-16T00:51:42.725Z,96821.56
2022-11-16T00:54:09.581Z,96833.66
2022-11-16T00:56:37.080Z,96836.81
2022-11-16T00:59:03.964Z,96821.25
2022-11-16T01:01:30.677Z,96841.25
2022-11-16T01:03:57.284Z,96789.22
2022-11-16T01:06:26.767Z,96817.56
2022-11-16T01:08:56.109Z,96828.00
2022-11-16T01:11:41.388Z,96804.69
2022-11-16T01:14:09.253Z,96812.56
2022-11-16T01:16:36.411Z,96820.31
2022-11-16T01:19:06.406Z,96823.34
2022-11-16T01:21:33.843Z,96829.75
2022-11-16T01:24:00.454Z,96819.38
2022-11-16T01:26:27.082Z,96817.00
2022-11-16T01:28:57.237Z,96792.47
2022-11-16T01:31:27.051Z,96806.47
2022-11-16T01:33:57.255Z,96820.69
2022-11-16T01:36:28.065Z,96792.31
2022-11-16T01:38:57.692Z,96805.16
2022-11-16T01:41:26.662Z,96789.06
2022-11-16T01:43:58.794Z,96811.91
2022-11-16T01:46:29.641Z,96781.09
2022-11-16T01:49:06.665Z,96772.69
2022-11-16T01:51:34.196Z,96809.81
2022-11-16T01:54:03.008Z,96823.88
2022-11-16T01:56:32.575Z,96822.44
2022-11-16T01:58:59.341Z,96820.81
2022-11-16T02:01:29.496Z,96829.50
2022-11-16T02:04:01.738Z,96800.66
2022-11-16T02:06:28.271Z,96829.22
2022-11-16T02:09:47.077Z,96846.25
2022-11-16T02:12:45.400Z,96832.34
2022-11-16T02:15:21.302Z,96834.72
2022-11-16T02:18:21.483Z,96837.28
2022-11-16T02:20:50.994Z,96839.28
2022-11-16T02:23:36.103Z,96823.84
2022-11-16T02:26:35.902Z,96836.59
2022-11-16T02:29:29.288Z,96831.44
2022-11-16T02:32:05.177Z,96838.25
2022-11-16T02:34:36.926Z,96797.25
2022-11-16T02:37:07.198Z,96821.75
2022-11-16T02:39:36.963Z,96783.38
2022-11-16T02:42:08.252Z,96819.00
2022-11-16T02:44:40.231Z,96818.28
2022-11-16T02:47:11.775Z,96792.44
2022-11-16T02:49:44.287Z,96827.81
2022-11-16T02:52:13.731Z,96827.81
2022-11-16T02:54:40.300Z,96825.34
2022-11-16T02:57:06.752Z,96828.25
2022-11-16T02:59:36.224Z,96829.38
2022-11-16T03:02:09.769Z,96786.78
2022-11-16T03:04:43.133Z,96824.03
2022-11-16T03:07:12.680Z,96841.16
2022-11-16T03:09:42.275Z,96847.38
2022-11-16T03:12:14.201Z,96820.84
2022-11-16T03:14:56.012Z,96809.66
2022-11-16T03:17:30.289Z,96861.84
2022-11-16T03:20:03.198Z,96850.84
2022-11-16T03:22:39.381Z,96868.03
2022-11-16T03:25:07.267Z,96827.94
2022-11-16T03:28:07.237Z,96860.06
2022-11-16T03:30:39.852Z,96846.81
2022-11-16T03:33:14.047Z,96856.25
2022-11-16T03:35:56.731Z,96829.00
2022-11-16T03:38:26.134Z,96857.97
2022-11-16T03:40:57.621Z,96852.19
2022-11-16T03:43:25.713Z,96849.25
2022-11-16T03:45:53.224Z,96822.03
2022-11-16T03:48:19.903Z,96823.41
2022-11-16T03:50:46.618Z,96861.59
2022-11-16T03:53:13.213Z,96837.94
2022-11-16T03:55:39.761Z,96839.00
2022-11-16T03:58:06.423Z,96838.88
2022-11-16T04:00:36.262Z,96821.75
2022-11-16T04:03:06.003Z,96835.16
2022-11-16T04:05:53.908Z,96819.50
2022-11-16T04:08:39.005Z,96859.78
2022-11-16T04:11:24.797Z,96850.97
2022-11-16T04:14:10.332Z,96842.31
2022-11-16T04:16:55.262Z,96852.00
2022-11-16T04:19:40.607Z,96846.31
2022-11-16T04:22:36.018Z,96852.44
2022-11-16T04:25:12.007Z,96829.53
2022-11-16T04:28:16.941Z,96853.84
2022-11-16T04:31:07.707Z,96825.28
2022-11-16T04:33:55.473Z,96844.13
2022-11-16T04:36:40.986Z,96846.94
2022-11-16T04:39:07.835Z,96824.34
2022-11-16T04:41:54.811Z,96823.66
2022-11-16T04:44:24.693Z,96815.47
2022-11-16T04:47:08.917Z,96819.69
2022-11-16T04:49:38.376Z,96808.16
2022-11-16T04:52:08.968Z,96831.63
2022-11-16T04:54:38.694Z,96827.13
2022-11-16T04:57:06.979Z,96846.78
2022-11-16T04:59:33.504Z,96828.94
2022-11-16T05:02:09.133Z,96827.66
2022-11-16T05:04:44.872Z,96829.94
2022-11-16T05:07:13.997Z,96838.50
2022-11-16T05:09:45.014Z,96817.84
2022-11-16T05:12:17.664Z,96843.41
2022-11-16T05:14:44.530Z,96835.94
2022-11-16T05:17:11.743Z,96821.91
2022-11-16T05:19:59.561Z,96799.34
2022-11-16T05:22:26.462Z,96835.88
2022-11-16T05:24:53.294Z,96833.22
2022-11-16T05:27:21.653Z,96842.53
2022-11-16T05:29:49.771Z,96795.06
2022-11-16T05:32:16.602Z,96784.34
2022-11-16T05:34:43.209Z,96828.66
2022-11-16T05:37:10.086Z,96844.44
2022-11-16T05:39:39.268Z,96846.97
2022-11-16T05:42:10.369Z,96843.59
2022-11-16T05:44:39.998Z,96844.97
2022-11-16T05:47:06.568Z,96803.75
2022-11-16T05:49:33.161Z,96797.78
2022-11-16T05:51:59.767Z,96832.81
2022-11-16T05:54:26.551Z,96803.50
2022-11-16T05:56:54.851Z,96830.59
2022-11-16T05:59:22.783Z,96834.88
2022-11-16T06:01:50.364Z,96805.94
2022-11-16T06:06:58.151Z,96804.69
2022-11-16T06:09:24.729Z,96832.53
2022-11-16T06:11:51.520Z,96809.53
2022-11-16T06:14:18.043Z,96838.63
2022-11-16T06:16:44.549Z,96791.09
2022-11-16T06:19:13.777Z,96836.03
2022-11-16T06:21:43.142Z,96820.56
2022-11-16T06:24:13.327Z,96840.00
2022-11-16T06:26:41.096Z,96823.47
2022-11-16T06:29:07.662Z,96800.50
2022-11-16T06:31:34.245Z,96821.94
2022-11-16T06:34:00.874Z,96826.13
2022-11-16T06:36:27.494Z,96783.31
2022-11-16T06:38:54.057Z,96790.78
2022-11-16T06:41:20.937Z,96794.25
2022-11-16T06:43:47.549Z,96799.59
2022-11-16T06:46:14.267Z,96786.25
2022-11-16T06:48:41.085Z,96768.03
2022-11-16T06:51:08.125Z,96802.00
2022-11-16T06:53:35.146Z,96769.03
2022-11-16T06:56:06.169Z,96809.31
2022-11-16T06:58:33.525Z,96788.59
2022-11-16T07:01:14.171Z,96793.31
2022-11-16T07:03:43.053Z,96807.34
2022-11-16T07:06:14.788Z,96808.50
2022-11-16T07:08:43.514Z,96833.78
2022-11-16T07:11:12.027Z,96814.53
2022-11-16T07:13:39.182Z,96813.78
2022-11-16T07:16:12.255Z,96837.25
2022-11-16T07:18:45.183Z,96817.34
2022-11-16T07:21:14.878Z,96840.78
2022-11-16T07:23:45.897Z,96836.44
2022-11-16T07:26:15.345Z,96842.94
2022-11-16T07:28:48.104Z,96816.00
2022-11-16T07:31:16.178Z,96847.88
2022-11-16T07:33:43.710Z,96814.56
2022-11-16T07:36:17.254Z,96812.41
2022-11-16T07:38:47.255Z,96815.72
2022-11-16T07:41:17.406Z,96836.16
2022-11-16T07:43:52.756Z,96810.72
2022-11-16T07:46:45.899Z,96838.00
2022-11-16T07:49:11.396Z,96845.25
2022-11-16T07:51:38.373Z,96832.69
2022-11-16T07:54:06.740Z,96808.22
2022-11-16T07:56:33.588Z,96826.13
2022-11-16T07:59:01.609Z,96836.75
2022-11-16T08:01:28.447Z,96831.09
2022-11-16T08:03:55.221Z,96831.75
2022-11-16T08:06:25.576Z,96843.66
2022-11-16T08:08:57.832Z,96838.72
2022-11-16T08:11:25.361Z,96839.81
2022-11-16T08:13:52.287Z,96847.50
2022-11-16T08:16:21.497Z,96846.41
2022-11-16T08:18:48.487Z,96866.78
2022-11-16T08:21:16.475Z,96860.69
2022-11-16T08:23:45.391Z,96863.44
2022-11-16T08:26:19.732Z,96866.75
2022-11-16T08:28:47.860Z,96849.66
2022-11-16T08:31:21.090Z,96862.34
2022-11-16T08:33:48.141Z,96858.28
2022-11-16T08:36:18.811Z,96854.00
2022-11-16T08:38:48.164Z,96851.50
2022-11-16T08:41:16.505Z,96868.69
2022-11-16T08:43:45.200Z,96869.47
2022-11-16T08:46:11.792Z,96860.09
2022-11-16T08:48:39.062Z,96870.16
2022-11-16T08:51:21.326Z,96864.00
2022-11-16T08:53:49.470Z,96850.09
2022-11-16T08:56:18.436Z,96842.34
2022-11-16T08:58:50.301Z,96852.94
2022-11-16T09:01:21.810Z,96852.97
2022-11-16T09:04:24.686Z,96851.53
2022-11-16T09:06:52.948Z,96809.47
2022-11-16T09:09:19.544Z,96839.06
2022-11-16T09:11:46.138Z,96846.41
2022-11-16T09:14:15.242Z,96851.50
2022-11-16T09:16:41.925Z,96838.25
2022-11-16T09:19:08.558Z,96848.84
2022-11-16T09:21:37.561Z,96865.44
2022-11-16T09:24:04.537Z,96861.53
2022-11-16T09:26:31.460Z,96862.78
2022-11-16T09:29:00.845Z,96848.69
2022-11-16T09:31:29.405Z,96869.31
2022-11-16T09:33:58.867Z,96881.31
2022-11-16T09:36:28.294Z,96870.84
2022-11-16T09:39:25.931Z,96869.56
2022-11-16T09:41:50.646Z,96865.47
2022-11-16T09:44:34.404Z,96858.75
2022-11-16T09:47:02.252Z,96886.09
2022-11-16T09:49:38.175Z,96870.78
2022-11-16T09:52:10.791Z,96859.19
2022-11-16T09:54:43.981Z,96862.69
2022-11-16T09:57:16.759Z,96855.31
2022-11-16T09:59:49.988Z,96858.81
2022-11-16T10:02:32.525Z,96851.50
2022-11-16T10:05:08.221Z,96865.13
2022-11-16T10:07:52.661Z,96849.00
2022-11-16T10:10:36.113Z,96858.72
2022-11-16T10:13:39.851Z,96861.34
2022-11-16T10:16:45.368Z,96840.09
2022-11-16T10:19:39.658Z,96849.34
2022-11-16T10:22:21.682Z,96847.53
2022-11-16T10:25:07.160Z,96833.38
2022-11-16T10:27:55.525Z,96829.41
2022-11-16T10:30:23.126Z,96823.28
2022-11-16T10:32:53.691Z,96820.84
2022-11-16T10:35:29.844Z,96806.81
2022-11-16T10:37:59.501Z,96799.00
2022-11-16T10:40:36.187Z,96800.84
2022-11-16T10:43:16.193Z,96776.69
2022-11-16T10:46:20.267Z,96777.41
2022-11-16T10:48:58.604Z,96770.00
2022-11-16T10:51:25.246Z,96766.03
2022-11-16T10:53:53.206Z,96752.41
2022-11-16T10:56:25.774Z,96755.44
2022-11-16T10:58:55.612Z,96761.50
2022-11-16T11:01:44.862Z,96750.03
2022-11-16T11:04:28.962Z,96728.72
2022-11-16T11:06:58.760Z,96735.66
2022-11-16T11:09:34.713Z,96722.09
2022-11-16T11:12:53.848Z,96722.06
2022-11-16T11:15:27.123Z,96709.50
2022-11-16T11:18:15.819Z,96711.78
2022-11-16T11:20:46.877Z,96710.03
2022-11-16T11:23:17.928Z,96710.19
2022-11-16T11:25:54.934Z,96712.16
2022-11-16T11:28:21.466Z,96713.25
2022-11-16T11:31:11.606Z,96714.88
2022-11-16T11:33:46.004Z,96704.75
2022-11-16T11:36:25.220Z,96712.97
2022-11-16T11:39:16.597Z,96706.16
2022-11-16T11:41:46.279Z,96694.09
2022-11-16T11:44:15.130Z,96695.56
2022-11-16T11:49:52.316Z,96699.09
2022-11-16T11:52:32.189Z,96677.56
2022-11-16T11:55:00.422Z,96670.38
2022-11-16T11:57:26.993Z,96664.56
2022-11-16T11:59:54.729Z,96661.97
2022-11-16T12:02:46.893Z,96655.28
2022-11-16T12:05:47.726Z,96660.44
2022-11-16T12:08:41.832Z,96660.47
2022-11-16T12:11:46.036Z,96648.41
2022-11-16T12:14:37.495Z,96644.09
2022-11-16T12:17:21.059Z,96648.66
2022-11-16T12:20:00.692Z,96643.66
2022-11-16T12:23:03.742Z,96649.84
2022-11-16T12:25:47.392Z,96645.94
2022-11-16T12:28:35.111Z,96651.19
2022-11-16T12:31:06.094Z,96642.84
2022-11-16T12:33:53.949Z,96640.88
2022-11-16T12:36:58.702Z,96641.44
2022-11-16T12:39:31.176Z,96640.25
2022-11-16T12:42:12.535Z,96635.53
2022-11-16T12:45:31.851Z,96618.31
2022-11-16T12:48:20.707Z,96618.38
2022-11-16T12:51:09.074Z,96613.31
2022-11-16T12:53:47.619Z,96609.50
2022-11-16T12:56:36.452Z,96597.97
2022-11-16T12:59:32.345Z,96594.22
2022-11-16T13:02:28.155Z,96594.16
2022-11-16T13:05:02.021Z,96587.34
2022-11-16T13:07:37.023Z,96586.31
2022-11-16T13:10:30.408Z,96595.47
2022-11-16T13:15:53.271Z,96576.91
2022-11-16T13:18:23.129Z,96570.16
2022-11-16T13:21:06.798Z,96550.63
2022-11-16T13:24:02.778Z,96557.31
2022-11-16T13:26:56.019Z,96551.88
2022-11-16T13:29:30.424Z,96541.59
2022-11-16T13:32:03.277Z,96541.06
2022-11-16T13:34:35.773Z,96544.00
2022-11-16T13:37:34.185Z,96546.91
2022-11-16T13:40:00.751Z,96547.59
2022-11-16T13:42:28.192Z,96535.28
2022-11-16T13:45:07.100Z,96534.47
2022-11-16T13:47:34.645Z,96525.00
2022-11-16T13:50:16.334Z,96532.94
2022-11-16T13:55:35.763Z,96528.13
2022-11-16T13:58:07.635Z,96518.22
2022-11-16T14:00:40.393Z,96527.63
2022-11-16T14:03:16.034Z,96526.53
2022-11-16T14:05:52.301Z,96525.47
2022-11-16T14:08:24.799Z,96526.50
2022-11-16T14:10:51.732Z,96518.28
2022-11-16T14:13:30.504Z,96521.13
2022-11-16T14:16:15.306Z,96509.41
2022-11-16T14:18:43.429Z,96504.31
2022-11-16T14:21:46.054Z,96500.91
2022-11-16T14:24:26.501Z,96507.22
2022-11-16T14:27:08.473Z,96508.53
2022-11-16T14:29:46.836Z,96512.81
2022-11-16T14:32:24.663Z,96513.38
2022-11-16T14:34:54.674Z,96515.22
2022-11-16T14:37:30.377Z,96516.78
2022-11-16T14:40:17.217Z,96511.13
2022-11-16T14:43:15.371Z,96492.78
2022-11-16T14:45:48.578Z,96489.31
2022-11-16T14:48:23.833Z,96474.56
2022-11-16T14:51:02.242Z,96467.16
2022-11-16T14:53:29.853Z,96461.38
2022-11-16T14:56:14.623Z,96460.78
2022-11-16T14:58:57.251Z,96448.84
2022-11-16T15:01:38.476Z,96444.53
2022-11-16T15:04:09.400Z,96448.91
2022-11-16T15:06:49.166Z,96435.84
2022-11-16T15:09:28.713Z,96444.34
2022-11-16T15:12:14.682Z,96448.16
2022-11-16T15:14:54.500Z,96443.50
2022-11-16T15:17:30.071Z,96430.66
2022-11-16T15:20:16.366Z,96426.72
2022-11-16T15:22:45.835Z,96420.16
2022-11-16T15:25:31.407Z,96407.69
2022-11-16T15:28:03.641Z,96410.00
2022-11-16T15:30:34.418Z,96409.09
2022-11-16T15:33:10.820Z,96402.19
2022-11-16T15:35:38.803Z,96404.28
2022-11-16T15:38:13.849Z,96391.09
2022-11-16T15:40:45.064Z,96389.00
2022-11-16T15:43:13.473Z,96370.34
2022-11-16T15:45:42.757Z,96362.25
2022-11-16T15:48:19.019Z,96358.31
2022-11-16T15:51:14.844Z,96353.91
2022-11-16T15:53:47.202Z,96337.09
2022-11-16T15:56:25.712Z,96342.53
2022-11-16T15:58:58.086Z,96332.69
2022-11-16T16:01:29.390Z,96315.31
2022-11-16T16:04:02.911Z,96343.34
2022-11-16T16:06:56.880Z,96342.25
2022-11-16T16:09:26.320Z,96328.03
2022-11-16T16:11:55.634Z,96316.06
2022-11-16T16:14:31.276Z,96316.94
2022-11-16T16:16:59.679Z,96349.25
2022-11-16T16:19:55.421Z,96344.50
2022-11-16T16:22:33.860Z,96340.22
2022-11-16T16:25:04.227Z,96345.94
2022-11-16T16:27:32.585Z,96331.97
2022-11-16T16:30:04.934Z,96328.84
2022-11-16T16:32:34.464Z,96334.41
2022-11-16T16:35:03.881Z,96322.69
2022-11-16T16:37:32.187Z,96314.78
2022-11-16T16:39:59.784Z,96330.78
2022-11-16T16:42:26.582Z,96318.16
2022-11-16T16:44:59.542Z,96320.88
2022-11-16T16:47:26.286Z,96321.97
2022-11-16T16:49:56.654Z,96326.97
2022-11-16T16:52:25.873Z,96298.09
2022-11-16T16:54:56.479Z,96307.31
2022-11-16T16:57:26.497Z,96313.25
2022-11-16T16:59:56.772Z,96301.91
2022-11-16T17:02:27.784Z,96309.91
2022-11-16T17:04:55.101Z,96293.22
2022-11-16T17:07:24.857Z,96316.28
2022-11-16T17:09:55.967Z,96291.09
2022-11-16T17:12:26.050Z,96291.34
2022-11-16T17:14:56.875Z,96278.72
2022-11-16T17:17:25.300Z,96255.03
2022-11-16T17:19:56.633Z,96285.09
2022-11-16T17:22:25.874Z,96274.94
2022-11-16T17:24:54.507Z,96281.59
2022-11-16T17:27:21.252Z,96272.59
2022-11-16T17:29:47.782Z,96263.97
2022-11-16T17:32:14.429Z,96268.28
2022-11-16T17:34:41.526Z,96265.47
2022-11-16T17:37:08.148Z,96260.47
2022-11-16T17:39:35.418Z,96266.19
2022-11-16T17:42:02.095Z,96255.66
2022-11-16T17:44:30.915Z,96249.41
2022-11-16T17:46:57.832Z,96230.78
2022-11-16T17:49:27.422Z,96225.78
2022-11-16T17:51:59.932Z,96219.03
2022-11-16T17:54:26.499Z,96218.63
2022-11-16T17:56:55.041Z,96233.38
2022-11-16T17:59:28.998Z,96204.59
2022-11-16T18:01:57.660Z,96194.66
2022-11-16T18:04:25.311Z,96166.06
2022-11-16T18:06:52.523Z,96195.78
2022-11-16T18:09:19.224Z,96181.44
2022-11-16T18:11:45.786Z,96195.22
2022-11-16T18:14:12.348Z,96179.13
2022-11-16T18:16:42.333Z,96177.44
2022-11-16T18:19:20.957Z,96194.09
2022-11-16T18:21:48.809Z,96175.44
2022-11-16T18:24:15.314Z,96189.22
2022-11-16T18:26:42.258Z,96198.16
2022-11-16T18:29:12.735Z,96215.88
2022-11-16T18:31:40.249Z,96237.34
2022-11-16T18:34:06.964Z,96239.81
2022-11-16T18:36:33.856Z,96236.13
2022-11-16T18:39:00.389Z,96224.50
2022-11-16T18:41:29.857Z,96245.75
2022-11-16T18:44:01.159Z,96230.06
2022-11-16T18:46:29.824Z,96227.59
2022-11-16T18:48:56.804Z,96198.88
2022-11-16T18:51:27.584Z,96227.34
2022-11-16T18:53:57.757Z,96205.38
2022-11-16T18:56:27.517Z,96225.22
2022-11-16T18:59:00.985Z,96221.47
2022-11-16T19:01:28.363Z,96211.50
2022-11-16T19:03:58.031Z,96196.91
2022-11-16T19:06:26.858Z,96201.03
2022-11-16T19:08:59.588Z,96198.47
2022-11-16T19:11:29.865Z,96198.09
2022-11-16T19:14:03.912Z,96180.16
2022-11-16T19:16:31.485Z,96186.38
2022-11-16T19:18:58.875Z,96193.75
2022-11-16T19:21:30.161Z,96192.56
2022-11-16T19:23:57.916Z,96190.97
2022-11-16T19:26:28.770Z,96177.53
2022-11-16T19:28:58.943Z,96187.69
2022-11-16T19:31:29.329Z,96156.28
2022-11-16T19:33:57.791Z,96170.94
2022-11-16T19:36:28.896Z,96162.47
2022-11-16T19:38:59.235Z,96136.28
2022-11-16T19:41:27.264Z,96146.66
2022-11-16T19:43:58.984Z,96155.75
2022-11-16T19:46:31.225Z,96153.69
2022-11-16T19:48:58.830Z,96157.53
2022-11-16T19:51:33.322Z,96160.97
2022-11-16T19:54:01.436Z,96169.00
2022-11-16T19:56:28.114Z,96156.97
2022-11-16T19:58:57.692Z,96157.69
2022-11-16T20:01:48.274Z,96158.50
2022-11-16T20:04:16.215Z,96163.88
2022-11-16T20:06:44.170Z,96152.19
2022-11-16T20:09:12.208Z,96174.72
2022-11-16T20:11:40.808Z,96187.25
2022-11-16T20:14:10.436Z,96169.41
2022-11-16T20:16:39.717Z,96184.94
2022-11-16T20:19:10.115Z,96174.91
2022-11-16T20:21:39.308Z,96173.41
2022-11-16T20:24:08.958Z,96163.53
2022-11-16T20:26:40.263Z,96185.16
2022-11-16T20:29:06.845Z,96156.94
2022-11-16T20:31:33.817Z,96188.88
2022-11-16T20:34:05.384Z,96172.06
2022-11-16T20:36:33.338Z,96185.66
2022-11-16T20:39:03.080Z,96174.72
2022-11-16T20:41:32.159Z,96156.63
2022-11-16T20:44:00.208Z,96124.16
2022-11-16T20:46:29.915Z,96115.59
2022-11-16T20:49:01.789Z,96127.38
2022-11-16T20:51:29.846Z,96138.66
2022-11-16T20:53:59.552Z,96123.81
2022-11-16T20:56:28.694Z,96109.44
2022-11-16T20:58:59.195Z,96106.38
2022-11-16T21:01:31.519Z,96068.34
2022-11-16T21:04:06.329Z,96114.34
2022-11-16T21:06:33.534Z,96100.81
2022-11-16T21:09:00.482Z,96066.72
2022-11-16T21:11:54.079Z,96065.06
2022-11-16T21:14:21.126Z,96072.13
2022-11-16T21:16:47.905Z,96080.25
2022-11-16T21:19:15.064Z,96057.69
2022-11-16T21:21:41.748Z,96046.13
2022-11-16T21:24:09.636Z,96057.69
2022-11-16T21:26:37.364Z,96045.22
2022-11-16T21:29:04.388Z,96010.56
2022-11-16T21:31:34.271Z,96034.09
2022-11-16T21:34:01.375Z,96033.22
2022-11-16T21:36:32.355Z,96034.47
2022-11-16T21:39:01.665Z,96030.75
2022-11-16T21:41:30.889Z,96030.19
2022-11-16T21:44:00.539Z,96018.63
2022-11-16T21:46:30.570Z,96024.41
2022-11-16T21:49:01.643Z,96005.81
2022-11-16T21:51:31.362Z,96026.34
2022-11-16T21:54:01.050Z,96026.16
2022-11-16T21:56:30.529Z,96023.59
2022-11-16T21:58:59.412Z,96042.09
2022-11-16T22:01:45.900Z,96014.81
2022-11-16T22:04:30.927Z,96000.59
2022-11-16T22:07:16.111Z,96029.06
2022-11-16T22:09:42.775Z,96022.56
2022-11-16T22:12:09.296Z,96008.69
2022-11-16T22:14:35.822Z,96018.66
2022-11-16T22:17:02.879Z,95985.34
2022-11-16T22:19:32.553Z,96001.66
2022-11-16T22:22:02.266Z,96021.97
2022-11-16T22:24:31.121Z,96018.63
2022-11-16T22:27:00.480Z,96036.31
2022-11-16T22:29:27.370Z,96030.41
2022-11-16T22:31:54.289Z,96019.09
2022-11-16T22:34:21.202Z,96052.59
2022-11-16T22:36:48.231Z,96046.38
2022-11-16T22:39:15.210Z,96049.59
2022-11-16T22:41:41.934Z,96037.72
2022-11-16T22:44:08.515Z,96049.84
2022-11-16T22:46:35.406Z,96043.25
2022-11-16T22:49:05.051Z,96056.19
2022-11-16T22:51:34.833Z,96021.88
2022-11-16T22:54:05.375Z,96027.63
2022-11-16T22:56:34.298Z,96035.50
2022-11-16T22:59:05.729Z,96046.72
2022-11-16T23:01:36.548Z,96007.88
2022-11-16T23:04:03.903Z,96032.75
2022-11-16T23:06:32.049Z,96016.78
2022-11-16T23:08:58.701Z,95996.44
2022-11-16T23:11:45.427Z,96000.00
2022-11-16T23:14:33.435Z,96000.41
2022-11-16T23:17:00.388Z,95991.72
2022-11-16T23:19:46.570Z,96003.72
2022-11-16T23:22:40.893Z,95995.41
2022-11-16T23:25:29.284Z,96031.50
2022-11-16T23:27:55.805Z,96034.94
2022-11-16T23:30:23.414Z,96036.53
2022-11-16T23:32:50.018Z,96021.19
2022-11-16T23:35:16.968Z,96046.38
2022-11-16T23:37:53.918Z,96018.94
2022-11-16T23:40:22.783Z,96032.28
2022-11-16T23:43:07.890Z,96036.06
2022-11-16T23:45:34.659Z,96054.41
2022-11-16T23:48:01.258Z,96035.00
2022-11-16T23:50:27.873Z,96057.16
2022-11-16T23:52:54.389Z,96041.03
2022-11-16T23:55:23.074Z,96056.91
2022-11-16T23:57:50.353Z,96033.22
